Main page
METAR-TAF:

METAR-TAF

Airports :

Acapulco, Mexico

Acapulco International Airport

latitude: 16-46N, longitude: 099-45W, elevation: 5 m

Current weather observation

The report was made 29 minutes ago, at 05:49 UTC
Calm wind
Temperature 25°C
Humidity 89%
Pressure 1012 hPa
Visibility: 8.0 km
Clear sky

METAR: MMAA 010549Z 00000KT 5SM SKC 25/23 A2989 RMK SLP131 52015 910 HZY

Time: 01:18 (06:18 UTC)

Forecast

The report was made 1 hour and 44 minutes ago, at 04:34 UTC
Forecast valid from 01 at 06 UTC to 02 at 12 UTC
Wind 5 kt from the North/Northeast
Visibility: 10 km
Clear sky
From 01 at 1600 UTC
Wind 10 kt from the Southwest
Visibility: 10 km
Scattered clouds at a height of 30000 ft
From 02 at 0300 UTC
Wind 5 kt from the North/Northeast
Visibility: 10 km
Scattered clouds at a height of 30000 ft

TAF: MMAA 010434Z 0106/0212 03005KT P6SM SKC TX30/0118Z TN24/0112Z FM011600 23010KT P6SM SCT300 FM020300 02005KT P6SM SCT300

Weather observations and forecasts of more than 4000 airports (METAR and TAF reports).

The available stations are represented by yellow and red dots on the map.

Hover mouse over dot to see the name of the station.

Then click to see weather observations and forecasts.

To change the map : click on the green buttons with a black cross to zoom in, on the green button with a dash to zoom out, or on the green arrows for adjacent maps.


METAR-TAF: